CYER

Fort Severn Airport

Fort Severn, Ontario, Canada
METAR CYER 161800Z AUTO 26010G15KT 9SM M30/M34 A3004 RMK CLD MISG SLP178
Observed Flight Rules
Jan-16 @ 18:00 UTC (29 minutes ago)
Wind Visibility
260° at 10 knots
 Gusting to 15 knots
9 miles
Temperatures Readings
Current -30°C / -22°F
Dewpoint -34°C / -29°F
Humidity 68%
Altimeter 30.04" Hg
Pressure 1017.8 hPa
Elevation 16
METAR CYER 161800Z AUTO 26010G15KT 9SM M30/M34 A3004 RMK CLD MISG SLP178
Observed Flight Rules
Jan-16 @ 18:00 UTC
(29 minutes ago)
Wind Visibility
260° at 10 knots
 Gusting to 15 knots
9 miles
Temperature Dewpoint
-30°C / -22°F -34°C / -29°F
Humidity Altimeter Pressure
68% 30.04" Hg 1017.8 hPa